createdAt,value
2018-10-07T00:00:43.836Z,73.86
2018-10-07T00:03:12.065Z,73.77
2018-10-07T00:05:40.277Z,73.90
2018-10-07T00:08:09.272Z,73.74
2018-10-07T00:10:37.449Z,73.97
2018-10-07T00:13:05.609Z,74.39
2018-10-07T00:15:34.617Z,74.58
2018-10-07T00:18:02.833Z,74.91
2018-10-07T00:20:31.001Z,74.91
2018-10-07T00:22:59.219Z,75.00
2018-10-07T00:25:27.409Z,74.80
2018-10-07T00:27:55.555Z,75.00
2018-10-07T00:30:23.767Z,74.75
2018-10-07T00:32:51.909Z,74.96
2018-10-07T00:35:22.369Z,75.10
2018-10-07T00:37:50.557Z,75.54
2018-10-07T00:40:18.772Z,75.99
2018-10-07T00:42:51.051Z,75.29
2018-10-07T00:45:19.249Z,75.50
2018-10-07T00:47:48.646Z,76.12
2018-10-07T00:50:16.782Z,76.08
2018-10-07T00:52:45.006Z,76.94
2018-10-07T00:55:13.237Z,77.39
2018-10-07T00:57:41.537Z,77.81
2018-10-07T01:00:09.775Z,77.58
2018-10-07T01:02:37.966Z,77.71
2018-10-07T01:05:06.386Z,77.77
2018-10-07T01:07:34.541Z,77.69
2018-10-07T01:10:02.681Z,77.23
2018-10-07T01:12:30.862Z,76.86
2018-10-07T01:14:58.981Z,76.11
2018-10-07T01:17:27.258Z,76.90
2018-10-07T01:19:55.428Z,77.00
2018-10-07T01:22:23.661Z,77.73
2018-10-07T01:24:51.962Z,77.43
2018-10-07T01:27:20.215Z,78.13
2018-10-07T01:29:48.478Z,77.91
2018-10-07T01:32:16.646Z,78.06
2018-10-07T01:34:44.888Z,78.14
2018-10-07T01:37:13.196Z,79.03
2018-10-07T01:39:42.334Z,78.22
2018-10-07T01:42:10.629Z,77.96
2018-10-07T01:44:38.851Z,78.39
2018-10-07T01:47:07.141Z,78.42
2018-10-07T01:49:35.363Z,78.39
2018-10-07T01:52:03.579Z,78.70
2018-10-07T01:54:31.767Z,79.34
2018-10-07T01:56:59.934Z,79.16
2018-10-07T01:59:28.188Z,79.00
2018-10-07T02:01:56.316Z,78.90
2018-10-07T02:04:24.592Z,79.29
2018-10-07T02:06:53.432Z,78.90
2018-10-07T02:09:22.128Z,79.11
2018-10-07T02:11:50.270Z,79.83
2018-10-07T02:14:18.969Z,80.13
2018-10-07T02:16:47.200Z,80.68
2018-10-07T02:19:15.458Z,81.08
2018-10-07T02:21:43.867Z,81.20
2018-10-07T02:24:12.055Z,81.06
2018-10-07T02:26:40.234Z,81.40
2018-10-07T02:29:08.400Z,81.86
2018-10-07T02:31:36.618Z,81.13
2018-10-07T02:34:04.874Z,81.13
2018-10-07T02:36:33.079Z,81.09
2018-10-07T02:39:01.354Z,81.50
2018-10-07T02:41:29.566Z,81.04
2018-10-07T02:43:57.764Z,80.85
2018-10-07T02:46:26.017Z,81.12
2018-10-07T02:48:54.307Z,81.52
2018-10-07T02:51:22.553Z,81.35
2018-10-07T02:53:50.899Z,81.40
2018-10-07T02:56:19.674Z,81.78
2018-10-07T02:58:48.554Z,82.00
2018-10-07T03:01:16.758Z,81.93
2018-10-07T03:03:44.929Z,81.97
2018-10-07T03:06:13.231Z,82.15
2018-10-07T03:08:41.469Z,81.66
2018-10-07T03:11:09.730Z,82.03
2018-10-07T03:13:37.959Z,82.09
2018-10-07T03:16:06.277Z,82.35
2018-10-07T03:18:34.456Z,81.97
2018-10-07T03:21:02.641Z,82.08
2018-10-07T03:23:30.822Z,81.98
2018-10-07T03:25:58.993Z,82.08
2018-10-07T03:28:27.195Z,82.39
2018-10-07T03:30:55.496Z,82.98
2018-10-07T03:33:23.613Z,82.41
2018-10-07T03:35:51.914Z,82.42
2018-10-07T03:38:20.216Z,82.49
2018-10-07T03:40:48.382Z,82.48
2018-10-07T03:43:16.840Z,82.80
2018-10-07T03:45:45.599Z,82.52
2018-10-07T03:48:13.813Z,82.11
2018-10-07T03:50:42.607Z,81.91
2018-10-07T03:53:10.856Z,81.63
2018-10-07T03:55:39.192Z,82.01
2018-10-07T03:58:07.361Z,81.73
2018-10-07T04:00:35.600Z,81.21
2018-10-07T04:03:03.877Z,81.70
2018-10-07T04:05:32.068Z,82.14
2018-10-07T04:08:00.291Z,82.07
2018-10-07T04:10:28.559Z,81.35
2018-10-07T04:12:56.708Z,81.92
2018-10-07T04:15:24.963Z,81.65
2018-10-07T04:17:53.149Z,81.74
2018-10-07T04:20:21.361Z,81.70
2018-10-07T04:22:49.636Z,82.42
2018-10-07T04:25:17.869Z,82.82
2018-10-07T04:27:46.076Z,82.63
2018-10-07T04:30:14.350Z,82.34
2018-10-07T04:32:42.612Z,81.97
2018-10-07T04:35:10.870Z,82.46
2018-10-07T04:37:39.078Z,82.71
2018-10-07T04:40:07.326Z,82.67
2018-10-07T04:42:35.534Z,83.02
2018-10-07T04:45:03.868Z,82.17
2018-10-07T04:47:32.065Z,82.55
2018-10-07T04:50:00.217Z,82.58
2018-10-07T04:52:28.343Z,82.46
2018-10-07T04:54:56.513Z,81.57
2018-10-07T04:57:24.695Z,81.52
2018-10-07T04:59:52.873Z,81.78
2018-10-07T05:02:21.042Z,81.94
2018-10-07T05:04:49.190Z,81.05
2018-10-07T05:07:17.435Z,80.70
2018-10-07T05:09:45.588Z,79.92
2018-10-07T05:12:13.941Z,79.75
2018-10-07T05:14:46.525Z,80.07
2018-10-07T05:17:15.101Z,79.25
2018-10-07T05:19:43.536Z,79.63
2018-10-07T05:22:21.880Z,79.06
2018-10-07T05:24:50.479Z,79.51
2018-10-07T05:27:19.957Z,79.32
2018-10-07T05:32:15.275Z,79.70
2018-10-07T05:34:43.451Z,79.70
2018-10-07T05:37:11.657Z,80.28
2018-10-07T05:39:39.925Z,80.14
2018-10-07T05:42:15.490Z,79.72
2018-10-07T05:44:46.893Z,80.49
2018-10-07T05:47:15.891Z,80.44
2018-10-07T05:49:44.108Z,80.34
2018-10-07T05:52:19.525Z,80.73
2018-10-07T05:54:52.854Z,79.88
2018-10-07T05:57:21.982Z,79.82
2018-10-07T05:59:50.349Z,79.94
2018-10-07T06:02:18.931Z,79.51
2018-10-07T06:04:53.089Z,79.71
2018-10-07T06:07:23.065Z,79.43
2018-10-07T06:09:51.647Z,79.71
2018-10-07T06:12:20.315Z,79.58
2018-10-07T06:15:00.055Z,79.48
2018-10-07T06:17:28.279Z,79.82
2018-10-07T06:19:57.039Z,79.98
2018-10-07T06:22:25.695Z,79.72
2018-10-07T06:24:55.179Z,80.28
2018-10-07T06:27:24.607Z,80.42
2018-10-07T06:29:54.213Z,80.74
2018-10-07T06:32:22.465Z,80.53
2018-10-07T06:34:50.805Z,80.50
2018-10-07T06:37:20.343Z,80.21
2018-10-07T06:39:50.066Z,80.87
2018-10-07T06:42:24.711Z,81.31
2018-10-07T06:44:54.277Z,82.01
2018-10-07T06:47:27.563Z,82.79
2018-10-07T06:49:56.847Z,82.78
2018-10-07T06:52:25.105Z,82.49
2018-10-07T06:54:58.512Z,82.61
2018-10-07T06:57:26.738Z,82.38
2018-10-07T06:59:56.311Z,81.97
2018-10-07T07:02:25.249Z,81.48
2018-10-07T07:04:54.322Z,81.72
2018-10-07T07:07:27.381Z,81.67
2018-10-07T07:09:55.864Z,81.82
2018-10-07T07:12:24.263Z,81.64
2018-10-07T07:15:01.141Z,81.77
2018-10-07T07:17:29.615Z,81.73
2018-10-07T07:19:57.901Z,81.45
2018-10-07T07:22:27.191Z,81.25
2018-10-07T07:24:55.393Z,80.65
2018-10-07T07:27:28.573Z,80.63
2018-10-07T07:29:56.783Z,80.79
2018-10-07T07:32:30.065Z,80.75
2018-10-07T07:34:59.580Z,80.62
2018-10-07T07:37:28.265Z,80.88
2018-10-07T07:39:58.098Z,80.74
2018-10-07T07:42:29.412Z,81.13
2018-10-07T07:44:57.749Z,81.37
2018-10-07T07:47:27.737Z,81.77
2018-10-07T07:49:56.135Z,81.87
2018-10-07T07:52:24.383Z,82.38
2018-10-07T07:54:53.865Z,83.33
2018-10-07T07:57:22.367Z,83.72
2018-10-07T07:59:51.965Z,84.12
2018-10-07T08:02:20.321Z,83.21
2018-10-07T08:04:48.781Z,83.18
2018-10-07T08:07:20.785Z,83.17
2018-10-07T08:09:49.055Z,82.37
2018-10-07T08:12:17.321Z,81.77
2018-10-07T08:14:45.782Z,80.42
2018-10-07T08:17:14.201Z,79.64
2018-10-07T08:19:42.535Z,78.64
2018-10-07T08:22:11.342Z,77.91
2018-10-07T08:24:39.525Z,77.10
2018-10-07T08:27:08.621Z,76.81
2018-10-07T08:29:37.010Z,76.46
2018-10-07T08:32:05.249Z,76.86
2018-10-07T08:34:33.987Z,76.66
2018-10-07T08:37:03.069Z,76.85
2018-10-07T08:39:31.411Z,77.86
2018-10-07T08:41:59.621Z,78.19
2018-10-07T08:44:29.190Z,77.62
2018-10-07T08:46:58.385Z,76.81
2018-10-07T08:49:30.013Z,75.73
2018-10-07T08:51:58.726Z,74.38
2018-10-07T08:54:27.114Z,74.80
2018-10-07T08:56:55.386Z,74.56
2018-10-07T08:59:24.540Z,73.83
2018-10-07T09:01:52.845Z,73.58
2018-10-07T09:04:20.955Z,73.74
2018-10-07T09:06:49.464Z,73.27
2018-10-07T09:09:18.568Z,73.57
2018-10-07T09:11:46.851Z,73.21
2018-10-07T09:14:15.584Z,72.28
2018-10-07T09:16:44.413Z,71.80
2018-10-07T09:19:13.532Z,71.64
2018-10-07T09:21:42.008Z,71.90
2018-10-07T09:24:10.347Z,71.81
2018-10-07T09:26:39.143Z,71.17
2018-10-07T09:29:07.537Z,70.96
2018-10-07T09:31:40.045Z,71.16
2018-10-07T09:34:09.155Z,71.01
2018-10-07T09:36:37.526Z,71.68
2018-10-07T09:39:07.982Z,71.41
2018-10-07T09:41:36.418Z,71.50
2018-10-07T09:44:04.633Z,71.50
2018-10-07T09:46:33.301Z,71.67
2018-10-07T09:49:03.833Z,72.30
2018-10-07T09:51:40.885Z,70.48
2018-10-07T09:54:15.580Z,69.92
2018-10-07T09:56:44.024Z,69.75
2018-10-07T09:59:12.225Z,69.45
2018-10-07T10:01:40.475Z,69.75
2018-10-07T10:04:08.854Z,69.58
2018-10-07T10:06:37.029Z,69.53
2018-10-07T10:09:07.667Z,69.87
2018-10-07T10:11:36.302Z,69.93
2018-10-07T10:14:04.834Z,69.26
2018-10-07T10:19:00.772Z,68.14
2018-10-07T10:21:43.698Z,66.97
2018-10-07T10:25:21.580Z,67.50
2018-10-07T10:27:55.140Z,67.50
2018-10-07T10:30:29.089Z,68.20
2018-10-07T10:33:31.564Z,69.35
2018-10-07T10:36:21.745Z,68.76
2018-10-07T10:39:10.844Z,69.15
2018-10-07T10:41:45.169Z,68.76
2018-10-07T10:44:34.120Z,68.96
2018-10-07T10:47:34.694Z,68.52
2018-10-07T10:50:14.095Z,67.26
2018-10-07T10:53:02.270Z,66.64
2018-10-07T10:56:48.075Z,66.14
2018-10-07T10:59:28.554Z,66.60
2018-10-07T11:04:12.360Z,66.97
2018-10-07T11:06:44.156Z,68.22
2018-10-07T11:09:49.875Z,68.68
2018-10-07T11:12:31.250Z,67.61
2018-10-07T11:16:06.826Z,67.04
2018-10-07T11:20:49.682Z,67.58
2018-10-07T11:23:27.861Z,66.75
2018-10-07T11:27:04.686Z,66.16
2018-10-07T11:29:41.171Z,65.34
2018-10-07T11:33:20.087Z,65.23
2018-10-07T11:36:05.544Z,65.50
2018-10-07T11:39:12.305Z,65.65
2018-10-07T11:41:47.764Z,65.68
2018-10-07T11:44:23.830Z,65.00
2018-10-07T11:48:03.464Z,64.25
2018-10-07T11:50:43.161Z,63.06
2018-10-07T11:53:46.908Z,62.31
2018-10-07T11:56:15.677Z,61.28
2018-10-07T11:58:44.020Z,60.87
2018-10-07T12:01:12.200Z,60.77
2018-10-07T12:03:40.672Z,60.78
2018-10-07T12:06:08.842Z,61.64
2018-10-07T12:08:37.588Z,61.47
2018-10-07T12:11:05.853Z,61.51
2018-10-07T12:13:34.053Z,62.37
2018-10-07T12:16:02.318Z,63.67
2018-10-07T12:18:31.105Z,62.57
2018-10-07T12:20:59.570Z,62.16
2018-10-07T12:23:27.797Z,61.32
2018-10-07T12:25:55.991Z,61.71
2018-10-07T12:28:24.229Z,61.97
2018-10-07T12:30:52.458Z,61.62
2018-10-07T12:33:20.643Z,61.96
2018-10-07T12:35:48.946Z,62.62
2018-10-07T12:38:17.283Z,61.52
2018-10-07T12:40:49.841Z,61.17
2018-10-07T12:43:18.074Z,60.85
2018-10-07T12:45:46.456Z,60.61
2018-10-07T12:48:14.722Z,59.77
2018-10-07T12:50:43.076Z,60.15
2018-10-07T12:53:11.260Z,58.60
2018-10-07T12:55:45.263Z,59.22
2018-10-07T12:58:13.550Z,58.38
2018-10-07T13:00:41.887Z,57.75
2018-10-07T13:03:10.088Z,58.19
2018-10-07T13:05:38.412Z,58.76
2018-10-07T13:08:06.673Z,56.38
2018-10-07T13:10:34.901Z,57.07
2018-10-07T13:13:03.196Z,57.97
2018-10-07T13:15:31.496Z,58.36
2018-10-07T13:17:59.719Z,58.42
2018-10-07T13:20:27.992Z,58.30
2018-10-07T13:22:56.266Z,58.40
2018-10-07T13:25:24.458Z,57.68
2018-10-07T13:27:53.304Z,58.05
2018-10-07T13:30:21.492Z,57.69
2018-10-07T13:32:49.691Z,56.90
2018-10-07T13:35:18.403Z,56.84
2018-10-07T13:37:46.753Z,56.71
2018-10-07T13:40:14.910Z,57.16
2018-10-07T13:42:43.749Z,56.68
2018-10-07T13:45:18.381Z,55.96
2018-10-07T13:47:46.623Z,56.96
2018-10-07T13:50:16.323Z,57.03
2018-10-07T13:52:44.918Z,56.89
2018-10-07T13:55:13.790Z,56.67
2018-10-07T13:57:42.568Z,56.17
2018-10-07T14:00:10.950Z,55.33
2018-10-07T14:02:39.296Z,55.54
2018-10-07T14:05:07.642Z,55.47
2018-10-07T14:07:35.889Z,55.63
2018-10-07T14:10:04.200Z,55.79
2018-10-07T14:12:32.909Z,55.63
2018-10-07T14:15:01.066Z,55.27
2018-10-07T14:17:29.281Z,54.71
2018-10-07T14:19:58.971Z,55.12
2018-10-07T14:22:28.810Z,54.95
2018-10-07T14:24:57.491Z,55.87
2018-10-07T14:27:25.702Z,55.60
2018-10-07T14:29:53.947Z,56.06
2018-10-07T14:32:22.216Z,55.85
2018-10-07T14:34:50.427Z,56.71
2018-10-07T14:37:18.660Z,56.88
2018-10-07T14:39:46.853Z,56.39
2018-10-07T14:42:15.053Z,56.91
2018-10-07T14:44:44.027Z,56.89
2018-10-07T14:49:39.544Z,56.73
2018-10-07T14:52:07.787Z,57.23
2018-10-07T14:54:35.976Z,56.81
2018-10-07T14:57:04.220Z,56.70
2018-10-07T14:59:32.438Z,57.22
2018-10-07T15:02:00.815Z,56.92
2018-10-07T15:04:28.976Z,57.21
2018-10-07T15:06:57.161Z,57.80
2018-10-07T15:09:25.489Z,57.94
2018-10-07T15:11:53.959Z,57.97
2018-10-07T15:14:22.141Z,57.65
2018-10-07T15:16:50.374Z,57.96
2018-10-07T15:19:18.564Z,57.62
2018-10-07T15:21:46.725Z,57.34
2018-10-07T15:24:15.001Z,57.54
2018-10-07T15:26:43.210Z,56.67
2018-10-07T15:29:12.602Z,57.24
2018-10-07T15:31:40.862Z,57.21
2018-10-07T15:34:09.124Z,57.97
2018-10-07T15:36:37.368Z,58.23
2018-10-07T15:39:06.640Z,57.86
2018-10-07T15:41:34.923Z,57.52
2018-10-07T15:44:03.261Z,57.44
2018-10-07T15:46:31.542Z,58.12
2018-10-07T15:48:59.767Z,57.73
2018-10-07T15:51:28.048Z,58.44
2018-10-07T15:53:56.301Z,58.67
2018-10-07T15:56:24.622Z,58.27
2018-10-07T15:58:53.011Z,58.85
2018-10-07T16:01:21.241Z,59.20
2018-10-07T16:03:49.722Z,59.50
2018-10-07T16:06:18.009Z,59.85
2018-10-07T16:08:46.371Z,59.98
2018-10-07T16:11:14.599Z,60.57
2018-10-07T16:13:43.106Z,60.65
2018-10-07T16:16:12.185Z,60.65
2018-10-07T16:18:40.683Z,60.86
2018-10-07T16:21:08.869Z,60.62
2018-10-07T16:23:37.301Z,61.18
2018-10-07T16:26:05.556Z,62.28
2018-10-07T16:28:34.124Z,62.77
2018-10-07T16:31:04.394Z,61.95
2018-10-07T16:33:33.347Z,63.05
2018-10-07T16:36:01.719Z,62.99
2018-10-07T16:38:30.099Z,63.36
2018-10-07T16:41:04.741Z,63.21
2018-10-07T16:43:35.744Z,64.15
2018-10-07T16:46:04.343Z,64.64
2018-10-07T16:48:33.634Z,65.39
2018-10-07T16:51:01.983Z,65.41
2018-10-07T16:53:30.386Z,66.04
2018-10-07T16:55:58.647Z,66.89
2018-10-07T16:58:26.835Z,67.18
2018-10-07T17:00:56.023Z,67.30
2018-10-07T17:03:24.314Z,66.94
2018-10-07T17:05:52.751Z,67.12
2018-10-07T17:08:21.064Z,67.13
2018-10-07T17:10:49.433Z,66.98
2018-10-07T17:13:18.436Z,67.39
2018-10-07T17:15:46.676Z,67.82
2018-10-07T17:18:14.881Z,68.20
2018-10-07T17:20:43.779Z,69.00
2018-10-07T17:23:12.138Z,69.05
2018-10-07T17:25:40.410Z,68.45
2018-10-07T17:28:08.682Z,67.81
2018-10-07T17:30:37.016Z,67.05
2018-10-07T17:33:05.469Z,66.67
2018-10-07T17:35:34.069Z,66.44
2018-10-07T17:38:02.514Z,66.71
2018-10-07T17:40:30.760Z,66.53
2018-10-07T17:42:58.991Z,66.37
2018-10-07T17:45:27.302Z,66.34
2018-10-07T17:47:55.615Z,66.26
2018-10-07T17:50:23.867Z,65.74
2018-10-07T17:52:52.362Z,65.75
2018-10-07T17:55:21.178Z,65.63
2018-10-07T18:00:17.418Z,66.07
2018-10-07T18:02:45.749Z,66.39
2018-10-07T18:05:14.297Z,66.35
2018-10-07T18:07:42.598Z,66.02
2018-10-07T18:10:11.654Z,65.54
2018-10-07T18:12:40.197Z,66.36
2018-10-07T18:15:08.509Z,66.17
2018-10-07T18:17:36.688Z,66.08
2018-10-07T18:20:05.641Z,66.59
2018-10-07T18:22:33.915Z,66.07
2018-10-07T18:25:02.215Z,66.13
2018-10-07T18:27:30.732Z,66.10
2018-10-07T18:29:59.113Z,65.48
2018-10-07T18:32:27.450Z,66.19
2018-10-07T18:34:55.719Z,65.76
2018-10-07T18:37:24.087Z,65.62
2018-10-07T18:39:52.318Z,65.86
2018-10-07T18:42:20.862Z,66.33
2018-10-07T18:44:49.187Z,66.00
2018-10-07T18:47:17.462Z,66.51
2018-10-07T18:49:45.773Z,66.38
2018-10-07T18:52:15.282Z,66.54
2018-10-07T18:54:43.722Z,67.00
2018-10-07T18:57:12.050Z,66.74
2018-10-07T18:59:40.445Z,66.23
2018-10-07T19:02:08.755Z,66.93
2018-10-07T19:04:37.281Z,66.39
2018-10-07T19:07:05.648Z,66.94
2018-10-07T19:09:34.004Z,67.08
2018-10-07T19:12:02.406Z,66.95
2018-10-07T19:14:31.388Z,66.87
2018-10-07T19:17:06.474Z,66.95
2018-10-07T19:19:34.817Z,67.15
2018-10-07T19:22:03.178Z,67.41
2018-10-07T19:24:31.443Z,67.13
2018-10-07T19:29:26.817Z,67.84
2018-10-07T19:31:55.365Z,67.84
2018-10-07T19:34:23.748Z,68.16
2018-10-07T19:36:52.204Z,68.26
2018-10-07T19:39:20.649Z,67.61
2018-10-07T19:41:49.079Z,68.21
2018-10-07T19:44:17.396Z,68.17
2018-10-07T19:46:45.657Z,69.09
2018-10-07T19:49:14.568Z,69.69
2018-10-07T19:51:42.969Z,69.47
2018-10-07T19:54:12.145Z,70.12
2018-10-07T19:56:40.453Z,69.63
2018-10-07T19:59:09.525Z,70.04
2018-10-07T20:01:37.975Z,69.98
2018-10-07T20:04:06.239Z,70.08
2018-10-07T20:06:34.451Z,70.21
2018-10-07T20:09:02.753Z,70.89
2018-10-07T20:11:31.038Z,72.02
2018-10-07T20:13:59.238Z,72.33
2018-10-07T20:16:27.512Z,70.94
2018-10-07T20:18:55.747Z,70.88
2018-10-07T20:21:23.994Z,71.43
2018-10-07T20:23:52.484Z,72.29
2018-10-07T20:26:20.797Z,72.60
2018-10-07T20:28:49.100Z,73.88
2018-10-07T20:31:17.412Z,73.36
2018-10-07T20:33:46.825Z,72.96
2018-10-07T20:36:15.023Z,74.28
2018-10-07T20:38:43.260Z,72.07
2018-10-07T20:41:11.652Z,72.32
2018-10-07T20:43:39.868Z,72.10
2018-10-07T20:46:08.063Z,72.06
2018-10-07T20:48:36.439Z,72.74
2018-10-07T20:51:05.069Z,73.02
2018-10-07T20:53:33.376Z,72.85
2018-10-07T20:56:01.628Z,73.11
2018-10-07T20:58:29.873Z,73.48
2018-10-07T21:00:58.086Z,73.82
2018-10-07T21:03:26.322Z,73.45
2018-10-07T21:05:54.554Z,73.56
2018-10-07T21:08:22.861Z,73.73
2018-10-07T21:10:51.075Z,75.02
2018-10-07T21:13:19.335Z,75.02
2018-10-07T21:15:47.535Z,75.73
2018-10-07T21:18:15.790Z,75.17
2018-10-07T21:20:44.108Z,76.02
2018-10-07T21:23:12.405Z,76.52
2018-10-07T21:25:40.642Z,76.13
2018-10-07T21:28:08.913Z,77.89
2018-10-07T21:30:37.228Z,77.61
2018-10-07T21:33:05.500Z,77.96
2018-10-07T21:35:33.650Z,77.79
2018-10-07T21:38:01.889Z,78.79
2018-10-07T21:40:30.064Z,77.43
2018-10-07T21:42:58.296Z,77.67
2018-10-07T21:45:26.487Z,77.55
2018-10-07T21:47:54.766Z,78.11
2018-10-07T21:50:23.025Z,79.04
2018-10-07T21:52:51.279Z,78.66
2018-10-07T21:55:19.473Z,79.30
2018-10-07T21:57:47.896Z,78.26
2018-10-07T22:00:16.116Z,78.96
2018-10-07T22:02:44.301Z,78.67
2018-10-07T22:05:12.548Z,79.48
2018-10-07T22:07:40.722Z,78.32
2018-10-07T22:10:08.910Z,80.39
2018-10-07T22:12:37.264Z,80.53
2018-10-07T22:15:05.458Z,79.76
2018-10-07T22:17:33.764Z,80.78
2018-10-07T22:20:02.040Z,80.01
2018-10-07T22:22:30.177Z,79.79
2018-10-07T22:24:58.465Z,79.57
2018-10-07T22:27:26.716Z,79.58
2018-10-07T22:29:54.900Z,80.26
2018-10-07T22:32:23.203Z,80.67
2018-10-07T22:34:51.535Z,81.30
2018-10-07T22:37:19.687Z,80.38
2018-10-07T22:39:47.861Z,80.30
2018-10-07T22:42:16.067Z,81.08
2018-10-07T22:44:44.233Z,80.57
2018-10-07T22:47:12.381Z,81.35
2018-10-07T22:49:40.533Z,81.47
2018-10-07T22:52:08.671Z,80.97
2018-10-07T22:54:36.806Z,81.59
2018-10-07T22:57:04.977Z,81.30
2018-10-07T22:59:33.183Z,82.56
2018-10-07T23:02:01.301Z,83.08
2018-10-07T23:04:29.406Z,82.85
2018-10-07T23:06:57.637Z,83.76
2018-10-07T23:09:25.807Z,82.91
2018-10-07T23:11:53.993Z,83.43
2018-10-07T23:14:22.151Z,84.81
2018-10-07T23:16:50.302Z,85.58
2018-10-07T23:19:18.955Z,85.48
2018-10-07T23:21:47.086Z,84.62
2018-10-07T23:24:15.343Z,84.97
2018-10-07T23:26:43.600Z,85.33
2018-10-07T23:29:11.913Z,85.21
2018-10-07T23:31:40.156Z,86.23
2018-10-07T23:34:08.394Z,86.05
2018-10-07T23:36:36.669Z,86.26
2018-10-07T23:39:07.322Z,85.82
2018-10-07T23:41:35.553Z,85.72
2018-10-07T23:44:03.765Z,85.45
2018-10-07T23:46:31.899Z,84.93
2018-10-07T23:49:00.089Z,85.47
2018-10-07T23:51:28.271Z,86.51
2018-10-07T23:53:56.428Z,86.24
2018-10-07T23:56:24.626Z,86.11
2018-10-07T23:58:52.801Z,86.81
